Terminal Aerodrome Forecast
Issued by NWS Grand Forks, ND

Home | Current Version | Previous Version | Graphics & Text | Print | Product List | Glossary On
Versions: 1 2 3 4 5 6 7 8 9 10 11 12 13
000
FTUS43 KFGF 020500
TAFFAR
TAF
KFAR 020534Z 0206/0306 25006KT P6SM SCT040
     FM021400 17012KT P6SM SKC
     FM021700 17020G30KT P6SM SCT250
     FM022000 17024G32KT P6SM BKN080
     FM030200 17018G25KT P6SM BKN050=

USA.gov is the U.S. government's official web portal to all federal, state and local government web resources and services.